Time;durP1;ratioP1;P1;durP2;ratioP2;P2;SDS_P1;SDS_P2;PMS_P1;PMS_P2;Temp;Humidity;BMP_temperature;BMP_pressure;BME280_temperature;BME280_humidity;BME280_pressure;Samples;Min_cycle;Max_cycle;Signal;HPM_P1;HPM_P2
2022/06/15 00:00:42;;;;;;;;;;;;;;;;;;2089950;28;20011;-42
2022/06/15 00:01:43;;;;;;;;;;;;;;;;;;2089839;28;20049;-42
2022/06/15 00:02:44;;;;;;;;;;;;;;;;;;2089734;28;20019;-42
2022/06/15 00:03:45;;;;;;;;;;;;;;;;;;2089871;28;19973;-42
2022/06/15 00:04:46;;;;;;;;;;;;;;;;;;2090043;28;19921;-44
2022/06/15 00:05:47;;;;;;;;;;;;;;;;;;2089630;28;20401;-44
2022/06/15 00:06:48;;;;;;;;;;;;;;;;;;2089814;28;19920;-44
2022/06/15 00:07:49;;;;;;;;;;;;;;;;;;2089861;28;19927;-44
2022/06/15 00:08:51;;;;;;;;;;;;;;;;;;2089732;28;20366;-45
2022/06/15 00:09:52;;;;;;;;;;;;;;;;;;2089709;28;20036;-45
2022/06/15 00:10:53;;;;;;;;;;;;;;;;;;2089351;28;19928;-45
2022/06/15 00:11:54;;;;;;;;;;;;;;;;;;2081652;28;19925;-45
2022/06/15 00:12:55;;;;;;;;;;;;;;;;;;2081638;28;20015;-45
2022/06/15 00:13:56;;;;;;;;;;;;;;;;;;2081389;28;19921;-44
2022/06/15 00:14:56;;;;;;;;;;;;;;;;;;2081545;28;20364;-45
2022/06/15 00:15:57;;;;;;;;;;;;;;;;;;2081385;28;19928;-45
2022/06/15 00:16:58;;;;;;;;;;;;;;;;;;2081776;28;19921;-43
2022/06/15 00:17:59;;;;;;;;;;;;;;;;;;2081530;28;19927;-43
2022/06/15 00:19:00;;;;;;;;;;;;;;;;;;2081559;28;19928;-43
2022/06/15 00:20:01;;;;;;;;;;;;;;;;;;2081655;28;20237;-46
2022/06/15 00:21:02;;;;;;;;;;;;;;;;;;2081603;28;19921;-45
2022/06/15 00:22:03;;;;;;;;;;;;;;;;;;2081605;28;19927;-45
2022/06/15 00:23:04;;;;;;;;;;;;;;;;;;2081580;28;19960;-45
2022/06/15 00:24:05;;;;;;;;;;;;;;;;;;2081621;28;20012;-45
2022/06/15 00:25:06;;;;;;;;;;;;;;;;;;2081477;28;20370;-46
2022/06/15 00:26:07;;;;;;;;;;;;;;;;;;2081477;28;19921;-45
2022/06/15 00:27:07;;;;;;;;;;;;;;;;;;2081560;28;20043;-47
2022/06/15 00:28:09;;;;;;;;;;;;;;;;;;2081552;28;20314;-45
2022/06/15 00:29:10;;;;;;;;;;;;;;;;;;2081476;28;19959;-45
2022/06/15 00:30:11;;;;;;;;;;;;;;;;;;2084399;28;19927;-46
2022/06/15 00:31:11;;;;;;;;;;;;;;;;;;2089628;28;20050;-46
2022/06/15 00:32:12;;;;;;;;;;;;;;;;;;2089613;28;20289;-46
2022/06/15 00:33:13;;;;;;;;;;;;;;;;;;2089599;28;19996;-46
2022/06/15 00:34:14;;;;;;;;;;;;;;;;;;2089687;28;19930;-46
2022/06/15 00:35:17;;;;;;;;;;;;;;;;;;2089135;28;19925;-46
2022/06/15 00:36:18;;;;;;;;;;;;;;;;;;2089550;28;19948;-46
2022/06/15 00:37:19;;;;;;;;;;;;;;;;;;2089698;28;20031;-47
2022/06/15 00:38:20;;;;;;;;;;;;;;;;;;2089754;28;20437;-43
2022/06/15 00:39:21;;;;;;;;;;;;;;;;;;2089741;28;19920;-43
2022/06/15 00:40:22;;;;;;;;;;;;;;;;;;2089640;28;19927;-43
2022/06/15 00:41:23;;;;;;;;;;;;;;;;;;2089531;28;20509;-43
2022/06/15 00:42:24;;;;;;;;;;;;;;;;;;2089654;28;19987;-44
2022/06/15 00:43:24;;;;;;;;;;;;;;;;;;2089697;28;19927;-43
2022/06/15 00:44:26;;;;;;;;;;;;;;;;;;2089505;28;19925;-43
2022/06/15 00:45:26;;;;;;;;;;;;;;;;;;2089478;28;19924;-43
2022/06/15 00:46:27;;;;;;;;;;;;;;;;;;2089610;28;19920;-43
2022/06/15 00:47:28;;;;;;;;;;;;;;;;;;2089415;28;19920;-43
2022/06/15 00:48:29;;;;;;;;;;;;;;;;;;2089682;28;20321;-43
2022/06/15 00:49:30;;;;;;;;;;;;;;;;;;2089619;28;19920;-43
2022/06/15 00:50:31;;;;;;;;;;;;;;;;;;2089758;28;20055;-45
2022/06/15 00:51:32;;;;;;;;;;;;;;;;;;2089452;28;19927;-46
2022/06/15 00:52:33;;;;;;;;;;;;;;;;;;2089608;28;19956;-45
2022/06/15 00:53:33;;;;;;;;;;;;;;;;;;2089409;28;19970;-45
2022/06/15 00:54:34;;;;;;;;;;;;;;;;;;2089625;28;19920;-45
2022/06/15 00:55:36;;;;;;;;;;;;;;;;;;2089655;28;19979;-46
2022/06/15 00:56:37;;;;;;;;;;;;;;;;;;2089286;28;20431;-45
2022/06/15 00:57:38;;;;;;;;;;;;;;;;;;2089423;28;20379;-46
2022/06/15 00:58:39;;;;;;;;;;;;;;;;;;2089399;28;19921;-45
2022/06/15 00:59:40;;;;;;;;;;;;;;;;;;2089508;28;19962;-45
2022/06/15 01:00:41;;;;;;;;;;;;;;;;;;2089459;28;20011;-47
2022/06/15 01:01:42;;;;;;;;;;;;;;;;;;2089499;28;19978;-45
2022/06/15 01:02:43;;;;;;;;;;;;;;;;;;2089584;28;20019;-45
2022/06/15 01:03:43;;;;;;;;;;;;;;;;;;2089826;28;19921;-46
2022/06/15 01:04:44;;;;;;;;;;;;;;;;;;2089732;28;20275;-47
2022/06/15 01:05:45;;;;;;;;;;;;;;;;;;2089328;28;20007;-46
2022/06/15 01:06:47;;;;;;;;;;;;;;;;;;2089486;28;20370;-45
2022/06/15 01:07:47;;;;;;;;;;;;;;;;;;2089404;28;20007;-46
2022/06/15 01:08:48;;;;;;;;;;;;;;;;;;2089501;28;20223;-48
2022/06/15 01:09:49;;;;;;;;;;;;;;;;;;2089340;28;19921;-45
2022/06/15 01:10:50;;;;;;;;;;;;;;;;;;2089428;28;19920;-46
2022/06/15 01:11:52;;;;;;;;;;;;;;;;;;2081011;28;20059;-46
2022/06/15 01:12:53;;;;;;;;;;;;;;;;;;2081288;28;20284;-46
2022/06/15 01:13:53;;;;;;;;;;;;;;;;;;2081310;28;20016;-46
2022/06/15 01:14:54;;;;;;;;;;;;;;;;;;2081091;28;19921;-46
2022/06/15 01:15:55;;;;;;;;;;;;;;;;;;2081207;28;20007;-46
2022/06/15 01:16:56;;;;;;;;;;;;;;;;;;2081101;28;20012;-45
2022/06/15 01:17:57;;;;;;;;;;;;;;;;;;2080974;28;20445;-46
2022/06/15 01:18:58;;;;;;;;;;;;;;;;;;2081133;28;19921;-45
2022/06/15 01:19:59;;;;;;;;;;;;;;;;;;2081370;28;20007;-43
2022/06/15 01:21:00;;;;;;;;;;;;;;;;;;2081160;28;19956;-43
2022/06/15 01:22:01;;;;;;;;;;;;;;;;;;2081108;28;20342;-44
2022/06/15 01:23:02;;;;;;;;;;;;;;;;;;2081128;28;20065;-44
2022/06/15 01:24:02;;;;;;;;;;;;;;;;;;2081165;28;20000;-43
2022/06/15 01:25:03;;;;;;;;;;;;;;;;;;2081068;28;20301;-43
2022/06/15 01:26:05;;;;;;;;;;;;;;;;;;2081399;28;19921;-44
2022/06/15 01:27:06;;;;;;;;;;;;;;;;;;2089338;28;20381;-43
2022/06/15 01:28:07;;;;;;;;;;;;;;;;;;2089409;28;19921;-44
2022/06/15 01:29:08;;;;;;;;;;;;;;;;;;2089387;28;19921;-43
2022/06/15 01:30:09;;;;;;;;;;;;;;;;;;2089207;28;19921;-43
2022/06/15 01:31:10;;;;;;;;;;;;;;;;;;2089348;28;19920;-44
2022/06/15 01:32:10;;;;;;;;;;;;;;;;;;2089174;28;19970;-44
2022/06/15 01:33:11;;;;;;;;;;;;;;;;;;2089356;28;19920;-44
2022/06/15 01:34:13;;;;;;;;;;;;;;;;;;2089593;28;19921;-44
2022/06/15 01:35:13;;;;;;;;;;;;;;;;;;2089269;28;19974;-43
2022/06/15 01:36:14;;;;;;;;;;;;;;;;;;2089215;28;20007;-44
2022/06/15 01:37:15;;;;;;;;;;;;;;;;;;2089223;28;19925;-43
2022/06/15 01:38:21;;;;;;;;;;;;;;;;;;2089356;28;20365;-44
2022/06/15 01:39:21;;;;;;;;;;;;;;;;;;2089309;28;20090;-43
2022/06/15 01:40:22;;;;;;;;;;;;;;;;;;2089314;28;19960;-44
2022/06/15 01:41:23;;;;;;;;;;;;;;;;;;2089222;28;20400;-43
2022/06/15 01:42:24;;;;;;;;;;;;;;;;;;2089289;28;19920;-45
2022/06/15 01:43:25;;;;;;;;;;;;;;;;;;2089324;28;19963;-46
2022/06/15 01:44:26;;;;;;;;;;;;;;;;;;2089265;28;20016;-45
2022/06/15 01:45:27;;;;;;;;;;;;;;;;;;2089106;28;20400;-46
2022/06/15 01:46:28;;;;;;;;;;;;;;;;;;2089757;28;19944;-46
2022/06/15 01:47:29;;;;;;;;;;;;;;;;;;2089973;28;19921;-46
2022/06/15 01:48:30;;;;;;;;;;;;;;;;;;2090586;28;19968;-46
2022/06/15 01:49:31;;;;;;;;;;;;;;;;;;2090665;28;20392;-46
2022/06/15 01:50:32;;;;;;;;;;;;;;;;;;2090676;28;20003;-46
2022/06/15 01:51:33;;;;;;;;;;;;;;;;;;2090655;28;19921;-46
2022/06/15 01:52:33;;;;;;;;;;;;;;;;;;2090609;28;19921;-47
2022/06/15 01:53:34;;;;;;;;;;;;;;;;;;2090586;28;19920;-46
2022/06/15 01:54:35;;;;;;;;;;;;;;;;;;2090619;28;20383;-45
2022/06/15 01:55:36;;;;;;;;;;;;;;;;;;2090703;28;20003;-46
2022/06/15 01:56:37;;;;;;;;;;;;;;;;;;2090513;28;19926;-46
2022/06/15 01:57:38;;;;;;;;;;;;;;;;;;2090621;28;19921;-49
2022/06/15 01:58:39;;;;;;;;;;;;;;;;;;2090753;28;19927;-46
2022/06/15 01:59:40;;;;;;;;;;;;;;;;;;2090778;28;19978;-44
2022/06/15 02:00:41;;;;;;;;;;;;;;;;;;2090543;28;19932;-43
2022/06/15 02:01:42;;;;;;;;;;;;;;;;;;2090527;28;19920;-43
2022/06/15 02:02:43;;;;;;;;;;;;;;;;;;2090603;28;20002;-43
2022/06/15 02:03:43;;;;;;;;;;;;;;;;;;2090606;28;20129;-43
2022/06/15 02:04:45;;;;;;;;;;;;;;;;;;2090861;28;20285;-44
2022/06/15 02:05:46;;;;;;;;;;;;;;;;;;2090485;28;20004;-43
2022/06/15 02:06:47;;;;;;;;;;;;;;;;;;2090860;28;19959;-43
2022/06/15 02:07:49;;;;;;;;;;;;;;;;;;2090716;28;20267;-43
2022/06/15 02:08:50;;;;;;;;;;;;;;;;;;2090654;28;19955;-43
2022/06/15 02:09:51;;;;;;;;;;;;;;;;;;2090695;28;20281;-45
2022/06/15 02:10:52;;;;;;;;;;;;;;;;;;2090633;28;19929;-44
2022/06/15 02:11:53;;;;;;;;;;;;;;;;;;2082233;28;19928;-44
2022/06/15 02:12:53;;;;;;;;;;;;;;;;;;2082343;28;20569;-44
2022/06/15 02:13:56;;;;;;;;;;;;;;;;;;2082540;28;19921;-47
2022/06/15 02:14:58;;;;;;;;;;;;;;;;;;2082205;28;20384;-44
2022/06/15 02:15:59;;;;;;;;;;;;;;;;;;2082121;28;20289;-44
2022/06/15 02:17:00;;;;;;;;;;;;;;;;;;2082184;28;19928;-44
2022/06/15 02:18:01;;;;;;;;;;;;;;;;;;2082256;28;20004;-44
2022/06/15 02:19:01;;;;;;;;;;;;;;;;;;2082180;28;19925;-44
2022/06/15 02:20:03;;;;;;;;;;;;;;;;;;2082459;28;19921;-47
2022/06/15 02:21:03;;;;;;;;;;;;;;;;;;2082698;28;20334;-46
2022/06/15 02:22:04;;;;;;;;;;;;;;;;;;2082399;28;19928;-44
2022/06/15 02:23:05;;;;;;;;;;;;;;;;;;2088684;28;19936;-45
2022/06/15 02:24:06;;;;;;;;;;;;;;;;;;2090471;28;19956;-44
2022/06/15 02:25:07;;;;;;;;;;;;;;;;;;2090555;28;20058;-44
2022/06/15 02:26:08;;;;;;;;;;;;;;;;;;2090346;28;20476;-44
2022/06/15 02:27:10;;;;;;;;;;;;;;;;;;2090585;28;19925;-45
2022/06/15 02:28:11;;;;;;;;;;;;;;;;;;2090392;28;19920;-44
2022/06/15 02:29:12;;;;;;;;;;;;;;;;;;2090724;28;19928;-43
2022/06/15 02:30:13;;;;;;;;;;;;;;;;;;2090634;28;20381;-46
2022/06/15 02:31:14;;;;;;;;;;;;;;;;;;2090192;28;20286;-44
2022/06/15 02:32:16;;;;;;;;;;;;;;;;;;2090538;28;19967;-44
2022/06/15 02:33:16;;;;;;;;;;;;;;;;;;2090747;28;20393;-46
2022/06/15 02:34:18;;;;;;;;;;;;;;;;;;2090471;28;20011;-46
2022/06/15 02:35:18;;;;;;;;;;;;;;;;;;2090594;28;20011;-45
2022/06/15 02:36:19;;;;;;;;;;;;;;;;;;2090225;28;19959;-44
2022/06/15 02:37:20;;;;;;;;;;;;;;;;;;2090419;28;19920;-43
2022/06/15 02:38:21;;;;;;;;;;;;;;;;;;2090463;28;19943;-43
2022/06/15 02:39:22;;;;;;;;;;;;;;;;;;2090644;28;20015;-43
2022/06/15 02:40:23;;;;;;;;;;;;;;;;;;2090647;28;20336;-45
2022/06/15 02:41:24;;;;;;;;;;;;;;;;;;2090311;28;19940;-46
2022/06/15 02:42:25;;;;;;;;;;;;;;;;;;2090230;28;20465;-45
2022/06/15 02:43:25;;;;;;;;;;;;;;;;;;2090376;28;19952;-45
2022/06/15 02:44:27;;;;;;;;;;;;;;;;;;2090616;28;19952;-46
2022/06/15 02:45:28;;;;;;;;;;;;;;;;;;2090511;28;19921;-45
2022/06/15 02:46:29;;;;;;;;;;;;;;;;;;2090398;28;19927;-45
2022/06/15 02:47:30;;;;;;;;;;;;;;;;;;2090511;28;19927;-45
2022/06/15 02:48:31;;;;;;;;;;;;;;;;;;2090459;28;19943;-45
2022/06/15 02:49:32;;;;;;;;;;;;;;;;;;2090386;28;20008;-45
2022/06/15 02:50:33;;;;;;;;;;;;;;;;;;2090524;28;19924;-46
2022/06/15 02:51:34;;;;;;;;;;;;;;;;;;2090396;28;20003;-46
2022/06/15 02:52:35;;;;;;;;;;;;;;;;;;2090374;28;20321;-45
2022/06/15 02:53:35;;;;;;;;;;;;;;;;;;2090378;28;20019;-45
2022/06/15 02:54:37;;;;;;;;;;;;;;;;;;2090296;28;20023;-46
2022/06/15 02:55:37;;;;;;;;;;;;;;;;;;2090316;28;20199;-47
2022/06/15 02:56:38;;;;;;;;;;;;;;;;;;2090502;28;20015;-44
2022/06/15 02:57:39;;;;;;;;;;;;;;;;;;2090259;28;20382;-44
2022/06/15 02:58:40;;;;;;;;;;;;;;;;;;2090089;28;19956;-44
2022/06/15 02:59:41;;;;;;;;;;;;;;;;;;2090463;28;19952;-44
2022/06/15 03:00:42;;;;;;;;;;;;;;;;;;2090345;28;19920;-44
2022/06/15 03:01:43;;;;;;;;;;;;;;;;;;2090350;28;19920;-44
2022/06/15 03:02:44;;;;;;;;;;;;;;;;;;2090337;28;19925;-44
2022/06/15 03:03:47;;;;;;;;;;;;;;;;;;2090404;28;20011;-44
2022/06/15 03:04:47;;;;;;;;;;;;;;;;;;2090335;28;20011;-44
2022/06/15 03:05:49;;;;;;;;;;;;;;;;;;2090220;28;19920;-43
2022/06/15 03:06:49;;;;;;;;;;;;;;;;;;2090268;28;19948;-45
2022/06/15 03:07:50;;;;;;;;;;;;;;;;;;2090481;28;20397;-44
2022/06/15 03:08:51;;;;;;;;;;;;;;;;;;2090291;28;19920;-44
2022/06/15 03:09:52;;;;;;;;;;;;;;;;;;2090333;28;22226;-44
2022/06/15 03:10:53;;;;;;;;;;;;;;;;;;2089946;28;20016;-44
2022/06/15 03:11:54;;;;;;;;;;;;;;;;;;2082077;28;20394;-44
2022/06/15 03:12:55;;;;;;;;;;;;;;;;;;2082346;28;19928;-46
2022/06/15 03:13:56;;;;;;;;;;;;;;;;;;2081977;28;19925;-46
2022/06/15 03:14:56;;;;;;;;;;;;;;;;;;2082116;28;19960;-46
2022/06/15 03:15:58;;;;;;;;;;;;;;;;;;2081957;28;20152;-46
2022/06/15 03:16:59;;;;;;;;;;;;;;;;;;2081915;28;20007;-46
2022/06/15 03:18:00;;;;;;;;;;;;;;;;;;2081933;28;19921;-46
2022/06/15 03:19:01;;;;;;;;;;;;;;;;;;2085716;28;20452;-46
2022/06/15 03:20:02;;;;;;;;;;;;;;;;;;2090294;28;19920;-46
2022/06/15 03:21:03;;;;;;;;;;;;;;;;;;2090256;28;20351;-46
2022/06/15 03:22:04;;;;;;;;;;;;;;;;;;2090200;28;19920;-46
2022/06/15 03:23:06;;;;;;;;;;;;;;;;;;2090086;28;19959;-46
2022/06/15 03:24:07;;;;;;;;;;;;;;;;;;2090349;28;19921;-46
2022/06/15 03:25:08;;;;;;;;;;;;;;;;;;2090279;28;20003;-47
2022/06/15 03:26:09;;;;;;;;;;;;;;;;;;2090338;28;19928;-46
2022/06/15 03:27:10;;;;;;;;;;;;;;;;;;2090274;28;20003;-47
2022/06/15 03:28:11;;;;;;;;;;;;;;;;;;2090289;28;19948;-46
2022/06/15 03:29:12;;;;;;;;;;;;;;;;;;2090304;28;19971;-46
2022/06/15 03:30:13;;;;;;;;;;;;;;;;;;2089994;28;19959;-47
2022/06/15 03:31:14;;;;;;;;;;;;;;;;;;2090216;28;20019;-46
2022/06/15 03:32:15;;;;;;;;;;;;;;;;;;2090161;28;20312;-49
2022/06/15 03:33:16;;;;;;;;;;;;;;;;;;2090058;28;19924;-47
2022/06/15 03:34:17;;;;;;;;;;;;;;;;;;2090157;28;19925;-46
2022/06/15 03:35:18;;;;;;;;;;;;;;;;;;2090367;28;19952;-46
2022/06/15 03:36:19;;;;;;;;;;;;;;;;;;2090022;28;19959;-45
2022/06/15 03:37:20;;;;;;;;;;;;;;;;;;2090252;28;20062;-46
2022/06/15 03:38:21;;;;;;;;;;;;;;;;;;2089997;28;20015;-46
2022/06/15 03:39:22;;;;;;;;;;;;;;;;;;2090099;28;19921;-46
2022/06/15 03:40:23;;;;;;;;;;;;;;;;;;2090651;28;20200;-44
2022/06/15 03:41:24;;;;;;;;;;;;;;;;;;2090232;28;19981;-46
2022/06/15 03:42:25;;;;;;;;;;;;;;;;;;2089936;28;20366;-45
2022/06/15 03:43:26;;;;;;;;;;;;;;;;;;2090160;28;19925;-46
2022/06/15 03:44:27;;;;;;;;;;;;;;;;;;2090057;28;20424;-45
2022/06/15 03:45:28;;;;;;;;;;;;;;;;;;2089961;28;19920;-46
2022/06/15 03:46:29;;;;;;;;;;;;;;;;;;2090506;28;19921;-45
2022/06/15 03:47:30;;;;;;;;;;;;;;;;;;2090003;28;20299;-46
2022/06/15 03:48:31;;;;;;;;;;;;;;;;;;2090025;28;20284;-46
2022/06/15 03:49:32;;;;;;;;;;;;;;;;;;2090017;28;19921;-44
2022/06/15 03:50:33;;;;;;;;;;;;;;;;;;2090221;28;20351;-45
2022/06/15 03:51:34;;;;;;;;;;;;;;;;;;2090123;28;19928;-43
2022/06/15 03:52:35;;;;;;;;;;;;;;;;;;2090699;28;19994;-44
2022/06/15 03:53:36;;;;;;;;;;;;;;;;;;2089844;28;20445;-45
2022/06/15 03:54:37;;;;;;;;;;;;;;;;;;2090030;28;19966;-44
2022/06/15 03:55:38;;;;;;;;;;;;;;;;;;2090320;28;19997;-46
2022/06/15 03:56:39;;;;;;;;;;;;;;;;;;2089783;28;20362;-46
2022/06/15 03:57:40;;;;;;;;;;;;;;;;;;2089919;28;19921;-46
2022/06/15 03:58:41;;;;;;;;;;;;;;;;;;2089995;28;20063;-46
2022/06/15 03:59:42;;;;;;;;;;;;;;;;;;2090022;28;19974;-47
2022/06/15 04:00:42;;;;;;;;;;;;;;;;;;2089955;28;19975;-45
2022/06/15 04:01:43;;;;;;;;;;;;;;;;;;2090162;28;19943;-46
2022/06/15 04:02:45;;;;;;;;;;;;;;;;;;2090334;28;19920;-45
2022/06/15 04:03:46;;;;;;;;;;;;;;;;;;2089995;28;20019;-44
2022/06/15 04:04:47;;;;;;;;;;;;;;;;;;2090432;28;19920;-45
2022/06/15 04:05:50;;;;;;;;;;;;;;;;;;2089672;28;19920;-45
2022/06/15 04:06:51;;;;;;;;;;;;;;;;;;2089888;28;20440;-45
2022/06/15 04:09:11;;;;;;;;;;;;;;;;;;2089944;28;20015;-44
2022/06/15 04:10:14;;;;;;;;;;;;;;;;;;2089287;28;19927;-46
2022/06/15 04:11:58;;;;;;;;;;;;;;;;;;2086710;28;20014;-45
2022/06/15 04:12:36;;;;;;;;;;;;;;;;;;2081976;28;20021;-45
2022/06/15 04:13:36;;;;;;;;;;;;;;;;;;2081923;28;20026;-46
2022/06/15 04:14:37;;;;;;;;;;;;;;;;;;2081627;28;19921;-45
2022/06/15 04:15:38;;;;;;;;;;;;;;;;;;2088355;28;20381;-46
2022/06/15 04:16:39;;;;;;;;;;;;;;;;;;2089982;28;19928;-44
2022/06/15 04:17:40;;;;;;;;;;;;;;;;;;2089979;28;19927;-49
2022/06/15 04:18:41;;;;;;;;;;;;;;;;;;2089968;28;19956;-43
2022/06/15 04:19:42;;;;;;;;;;;;;;;;;;2090155;28;20358;-45
2022/06/15 04:20:43;;;;;;;;;;;;;;;;;;2090290;28;19920;-46
2022/06/15 04:21:44;;;;;;;;;;;;;;;;;;2090162;28;20011;-44
2022/06/15 04:22:45;;;;;;;;;;;;;;;;;;2090178;28;20366;-43
2022/06/15 04:23:46;;;;;;;;;;;;;;;;;;2089914;28;19928;-44
2022/06/15 04:24:47;;;;;;;;;;;;;;;;;;2090277;28;19921;-46
2022/06/15 04:25:48;;;;;;;;;;;;;;;;;;2090291;28;19921;-48
2022/06/15 04:26:49;;;;;;;;;;;;;;;;;;2090810;28;19960;-43
2022/06/15 04:27:50;;;;;;;;;;;;;;;;;;2090179;28;19921;-47
2022/06/15 04:28:50;;;;;;;;;;;;;;;;;;2089911;28;19928;-46
2022/06/15 04:29:51;;;;;;;;;;;;;;;;;;2090011;28;20274;-43
2022/06/15 04:30:52;;;;;;;;;;;;;;;;;;2089679;28;19943;-43
2022/06/15 04:31:53;;;;;;;;;;;;;;;;;;2089731;28;19931;-43
2022/06/15 04:32:54;;;;;;;;;;;;;;;;;;2089674;28;20658;-43
2022/06/15 04:33:55;;;;;;;;;;;;;;;;;;2090027;28;19940;-44
2022/06/15 04:34:56;;;;;;;;;;;;;;;;;;2089938;28;20271;-44
2022/06/15 04:35:57;;;;;;;;;;;;;;;;;;2089855;28;19936;-43
2022/06/15 04:36:58;;;;;;;;;;;;;;;;;;2089893;28;19990;-47
2022/06/15 04:37:59;;;;;;;;;;;;;;;;;;2089691;28;19921;-46
2022/06/15 04:39:00;;;;;;;;;;;;;;;;;;2089709;28;20287;-46
2022/06/15 04:40:01;;;;;;;;;;;;;;;;;;2089800;28;19927;-46
2022/06/15 04:41:03;;;;;;;;;;;;;;;;;;2089863;28;19921;-46
2022/06/15 04:42:04;;;;;;;;;;;;;;;;;;2089893;28;19959;-48
2022/06/15 04:43:05;;;;;;;;;;;;;;;;;;2090034;28;19921;-45
2022/06/15 04:44:06;;;;;;;;;;;;;;;;;;2089454;28;19963;-46
2022/06/15 04:45:07;;;;;;;;;;;;;;;;;;2090259;28;19920;-43
2022/06/15 04:46:08;;;;;;;;;;;;;;;;;;2089994;28;19920;-45
2022/06/15 04:47:08;;;;;;;;;;;;;;;;;;2089953;28;19920;-45
2022/06/15 04:48:10;;;;;;;;;;;;;;;;;;2089677;28;20163;-45
2022/06/15 04:49:11;;;;;;;;;;;;;;;;;;2090390;28;20480;-44
2022/06/15 04:50:13;;;;;;;;;;;;;;;;;;2089857;28;20028;-43
2022/06/15 04:51:14;;;;;;;;;;;;;;;;;;2089875;28;20008;-45
2022/06/15 04:52:14;;;;;;;;;;;;;;;;;;2089845;28;20286;-46
2022/06/15 04:53:16;;;;;;;;;;;;;;;;;;2089723;28;19927;-45
2022/06/15 04:54:16;;;;;;;;;;;;;;;;;;2089834;28;19924;-45
2022/06/15 04:55:18;;;;;;;;;;;;;;;;;;2089789;28;19925;-44
2022/06/15 04:56:19;;;;;;;;;;;;;;;;;;2089866;28;19920;-43
2022/06/15 04:57:20;;;;;;;;;;;;;;;;;;2089557;28;20149;-43
2022/06/15 04:58:21;;;;;;;;;;;;;;;;;;2090154;28;20008;-46
2022/06/15 04:59:22;;;;;;;;;;;;;;;;;;2089596;28;19943;-45
2022/06/15 05:00:23;;;;;;;;;;;;;;;;;;2090098;28;20033;-46
2022/06/15 05:01:24;;;;;;;;;;;;;;;;;;2089825;28;19921;-45
2022/06/15 05:02:25;;;;;;;;;;;;;;;;;;2089681;28;19970;-45
2022/06/15 05:03:26;;;;;;;;;;;;;;;;;;2089707;28;19936;-45
2022/06/15 05:04:27;;;;;;;;;;;;;;;;;;2089674;28;20007;-45
2022/06/15 05:05:28;;;;;;;;;;;;;;;;;;2089894;28;19921;-44
2022/06/15 05:06:29;;;;;;;;;;;;;;;;;;2089341;28;19956;-45
2022/06/15 05:07:30;;;;;;;;;;;;;;;;;;2089889;28;19963;-43
2022/06/15 05:08:30;;;;;;;;;;;;;;;;;;2090027;28;19921;-45
2022/06/15 05:09:31;;;;;;;;;;;;;;;;;;2089448;28;19920;-45
2022/06/15 05:10:32;;;;;;;;;;;;;;;;;;2089703;28;20054;-45
2022/06/15 05:11:33;;;;;;;;;;;;;;;;;;2090220;28;19921;-43
2022/06/15 05:12:34;;;;;;;;;;;;;;;;;;2089441;28;19990;-44
2022/06/15 05:13:35;;;;;;;;;;;;;;;;;;2090395;28;19927;-43
2022/06/15 05:14:36;;;;;;;;;;;;;;;;;;2089946;28;19932;-43
2022/06/15 05:15:38;;;;;;;;;;;;;;;;;;2089597;28;19925;-44
2022/06/15 05:16:39;;;;;;;;;;;;;;;;;;2089546;28;19920;-43
2022/06/15 05:17:41;;;;;;;;;;;;;;;;;;2089757;28;19951;-45
2022/06/15 05:18:41;;;;;;;;;;;;;;;;;;2089648;28;20374;-46
2022/06/15 05:19:42;;;;;;;;;;;;;;;;;;2089959;28;20010;-43
2022/06/15 05:20:43;;;;;;;;;;;;;;;;;;2089659;28;20353;-43
2022/06/15 05:21:44;;;;;;;;;;;;;;;;;;2091033;28;20354;-42
2022/06/15 05:22:45;;;;;;;;;;;;;;;;;;2091424;28;19979;-42
2022/06/15 05:23:46;;;;;;;;;;;;;;;;;;2091186;28;20070;-43
2022/06/15 05:24:47;;;;;;;;;;;;;;;;;;2091284;28;20003;-45
2022/06/15 05:25:48;;;;;;;;;;;;;;;;;;2090913;28;20563;-45
2022/06/15 05:26:49;;;;;;;;;;;;;;;;;;2091071;28;20034;-45
2022/06/15 05:27:49;;;;;;;;;;;;;;;;;;2091194;28;19963;-46
2022/06/15 05:28:50;;;;;;;;;;;;;;;;;;2090925;28;19974;-45
2022/06/15 05:29:51;;;;;;;;;;;;;;;;;;2091049;28;20016;-45
2022/06/15 05:30:52;;;;;;;;;;;;;;;;;;2090755;28;19967;-45
2022/06/15 05:31:53;;;;;;;;;;;;;;;;;;2090885;28;20364;-45
2022/06/15 05:32:54;;;;;;;;;;;;;;;;;;2091557;28;19921;-43
2022/06/15 05:33:55;;;;;;;;;;;;;;;;;;2091390;28;20378;-42
2022/06/15 05:34:56;;;;;;;;;;;;;;;;;;2091255;28;19959;-43
2022/06/15 05:36:02;;;;;;;;;;;;;;;;;;2090844;28;20007;-43
2022/06/15 05:37:03;;;;;;;;;;;;;;;;;;2091067;28;19920;-43
2022/06/15 05:38:03;;;;;;;;;;;;;;;;;;2091023;28;20333;-42
2022/06/15 05:39:05;;;;;;;;;;;;;;;;;;2090850;28;19921;-43
2022/06/15 05:40:05;;;;;;;;;;;;;;;;;;2090882;28;20364;-46
2022/06/15 05:41:07;;;;;;;;;;;;;;;;;;2090756;28;19927;-45
2022/06/15 05:42:08;;;;;;;;;;;;;;;;;;2091003;28;19927;-44
2022/06/15 05:43:09;;;;;;;;;;;;;;;;;;2091130;28;19944;-44
2022/06/15 05:44:12;;;;;;;;;;;;;;;;;;2091405;28;19928;-44
2022/06/15 05:45:13;;;;;;;;;;;;;;;;;;2091012;28;19967;-46
2022/06/15 05:46:14;;;;;;;;;;;;;;;;;;2091111;28;20015;-45
2022/06/15 05:47:15;;;;;;;;;;;;;;;;;;2091633;28;20435;-44
2022/06/15 05:48:16;;;;;;;;;;;;;;;;;;2090928;28;19925;-46
2022/06/15 05:49:17;;;;;;;;;;;;;;;;;;2091311;28;20413;-45
2022/06/15 05:50:18;;;;;;;;;;;;;;;;;;2091402;28;19927;-47
2022/06/15 05:51:19;;;;;;;;;;;;;;;;;;2090866;28;19987;-44
2022/06/15 05:52:20;;;;;;;;;;;;;;;;;;2090897;28;19943;-44
2022/06/15 05:53:21;;;;;;;;;;;;;;;;;;2090873;28;20008;-44
2022/06/15 05:54:22;;;;;;;;;;;;;;;;;;2091064;28;19920;-46
2022/06/15 05:55:25;;;;;;;;;;;;;;;;;;2091439;28;19943;-45
2022/06/15 05:56:27;;;;;;;;;;;;;;;;;;2090905;28;19970;-44
2022/06/15 05:57:28;;;;;;;;;;;;;;;;;;2090782;28;19955;-46
2022/06/15 05:58:29;;;;;;;;;;;;;;;;;;2091438;28;20377;-46
2022/06/15 05:59:29;;;;;;;;;;;;;;;;;;2091319;28;20337;-44
2022/06/15 06:00:31;;;;;;;;;;;;;;;;;;2091280;28;19955;-48
2022/06/15 06:01:32;;;;;;;;;;;;;;;;;;2091329;28;20011;-46
2022/06/15 06:02:33;;;;;;;;;;;;;;;;;;2091355;28;19924;-44
2022/06/15 06:03:33;;;;;;;;;;;;;;;;;;2091104;28;19921;-44
2022/06/15 06:04:35;;;;;;;;;;;;;;;;;;2091056;28;20012;-43
2022/06/15 06:05:36;;;;;;;;;;;;;;;;;;2091215;28;19935;-44
2022/06/15 06:06:37;;;;;;;;;;;;;;;;;;2091006;28;19921;-45
2022/06/15 06:07:38;;;;;;;;;;;;;;;;;;2090871;28;19929;-46
2022/06/15 06:08:39;;;;;;;;;;;;;;;;;;2091118;28;19921;-47
2022/06/15 06:09:40;;;;;;;;;;;;;;;;;;2091436;28;20011;-49
2022/06/15 06:10:41;;;;;;;;;;;;;;;;;;2091307;28;20007;-43
2022/06/15 06:11:42;;;;;;;;;;;;;;;;;;2084001;28;19921;-46
2022/06/15 06:12:42;;;;;;;;;;;;;;;;;;2082802;28;20366;-44
2022/06/15 06:13:43;;;;;;;;;;;;;;;;;;2082521;28;19921;-46
2022/06/15 06:14:50;;;;;;;;;;;;;;;;;;2083004;28;19921;-46
2022/06/15 06:15:52;;;;;;;;;;;;;;;;;;2082715;28;20058;-45
2022/06/15 06:16:52;;;;;;;;;;;;;;;;;;2082664;28;19921;-47
2022/06/15 06:17:53;;;;;;;;;;;;;;;;;;2082551;28;20019;-44
2022/06/15 06:18:54;;;;;;;;;;;;;;;;;;2082970;28;20008;-43
2022/06/15 06:19:55;;;;;;;;;;;;;;;;;;2082563;28;19935;-44
2022/06/15 06:20:56;;;;;;;;;;;;;;;;;;2083835;28;19924;-46
2022/06/15 06:21:57;;;;;;;;;;;;;;;;;;2083139;28;20385;-45
2022/06/15 06:22:58;;;;;;;;;;;;;;;;;;2082343;28;20012;-44
2022/06/15 06:23:59;;;;;;;;;;;;;;;;;;2082739;28;20442;-44
2022/06/15 06:24:59;;;;;;;;;;;;;;;;;;2082761;28;20004;-47
2022/06/15 06:26:00;;;;;;;;;;;;;;;;;;2082919;28;19921;-45
2022/06/15 06:27:01;;;;;;;;;;;;;;;;;;2083203;28;19971;-43
2022/06/15 06:28:02;;;;;;;;;;;;;;;;;;2082837;28;19921;-44
2022/06/15 06:29:03;;;;;;;;;;;;;;;;;;2082644;28;19972;-44
2022/06/15 06:30:04;;;;;;;;;;;;;;;;;;2082974;28;19921;-43
2022/06/15 06:31:05;;;;;;;;;;;;;;;;;;2082520;28;19929;-44
2022/06/15 06:32:06;;;;;;;;;;;;;;;;;;2082379;28;20394;-46
2022/06/15 06:33:07;;;;;;;;;;;;;;;;;;2081725;28;20335;-43
2022/06/15 06:34:08;;;;;;;;;;;;;;;;;;2082489;28;20042;-46
2022/06/15 06:35:09;;;;;;;;;;;;;;;;;;2082713;28;20073;-43
2022/06/15 06:36:10;;;;;;;;;;;;;;;;;;2082545;28;19955;-47
2022/06/15 06:37:11;;;;;;;;;;;;;;;;;;2082203;28;19951;-46
2022/06/15 06:38:12;;;;;;;;;;;;;;;;;;2082759;28;20278;-46
2022/06/15 06:39:14;;;;;;;;;;;;;;;;;;2082363;28;19928;-46
2022/06/15 06:40:14;;;;;;;;;;;;;;;;;;2082397;28;20059;-46
2022/06/15 06:41:15;;;;;;;;;;;;;;;;;;2082333;28;19967;-46
2022/06/15 06:42:17;;;;;;;;;;;;;;;;;;2082212;28;19925;-46
2022/06/15 06:43:18;;;;;;;;;;;;;;;;;;2082721;28;20452;-44
2022/06/15 06:44:19;;;;;;;;;;;;;;;;;;2082281;28;19920;-44
2022/06/15 06:45:20;;;;;;;;;;;;;;;;;;2082578;28;19921;-46
2022/06/15 06:46:21;;;;;;;;;;;;;;;;;;2082471;28;19957;-45
2022/06/15 06:47:22;;;;;;;;;;;;;;;;;;2082503;28;19921;-44
2022/06/15 06:48:23;;;;;;;;;;;;;;;;;;2082430;28;19920;-44
2022/06/15 06:49:24;;;;;;;;;;;;;;;;;;2082838;28;19921;-46
2022/06/15 06:50:25;;;;;;;;;;;;;;;;;;2082268;28;20370;-46
2022/06/15 06:51:26;;;;;;;;;;;;;;;;;;2082176;28;20060;-46
2022/06/15 06:52:27;;;;;;;;;;;;;;;;;;2082444;28;19970;-43
2022/06/15 06:53:28;;;;;;;;;;;;;;;;;;2083444;28;20330;-47
2022/06/15 06:54:29;;;;;;;;;;;;;;;;;;2082931;28;19928;-44
2022/06/15 06:55:30;;;;;;;;;;;;;;;;;;2082468;28;20007;-43
2022/06/15 06:56:31;;;;;;;;;;;;;;;;;;2082274;28;20344;-46
2022/06/15 06:57:32;;;;;;;;;;;;;;;;;;2083218;28;20298;-44
2022/06/15 06:58:33;;;;;;;;;;;;;;;;;;2082534;28;19921;-47